Time;durP1;ratioP1;P1;durP2;ratioP2;P2;SDS_P1;SDS_P2;PMS_P1;PMS_P2;Temp;Humidity;BMP_temperature;BMP_pressure;BME280_temperature;BME280_humidity;BME280_pressure;Samples;Min_cycle;Max_cycle;Signal;HPM_P1;HPM_P2
2023/10/29 00:00:29;;;;;;;1.73;0.80;;;;;;;;;;5023946;28;20040;-91
2023/10/29 00:02:54;;;;;;;3.30;1.00;;;;;;;;;;5028767;28;20776;-82
2023/10/29 00:05:20;;;;;;;2.58;0.98;;;;;;;;;;5032463;28;20026;-81
2023/10/29 00:07:46;;;;;;;2.55;1.00;;;;;;;;;;5023633;28;20025;-83
2023/10/29 00:10:11;;;;;;;1.90;0.95;;;;;;;;;;5023765;28;20136;-82
2023/10/29 00:12:36;;;;;;;3.72;1.00;;;;;;;;;;5028883;28;20025;-85
2023/10/29 00:15:03;;;;;;;3.25;1.05;;;;;;;;;;5026190;28;20042;-86
2023/10/29 00:17:29;;;;;;;1.92;0.98;;;;;;;;;;5027124;28;20116;-86
2023/10/29 00:19:54;;;;;;;3.17;0.98;;;;;;;;;;5024662;28;20112;-86
2023/10/29 00:22:19;;;;;;;1.40;0.85;;;;;;;;;;5021381;28;20032;-86
2023/10/29 00:24:45;;;;;;;3.90;0.90;;;;;;;;;;5025266;28;20083;-85
2023/10/29 00:27:12;;;;;;;2.95;1.00;;;;;;;;;;5021289;28;20095;-86
2023/10/29 00:29:37;;;;;;;3.97;1.20;;;;;;;;;;5025108;28;20025;-86
2023/10/29 00:32:03;;;;;;;2.65;1.00;;;;;;;;;;5018704;28;20071;-87
2023/10/29 00:34:28;;;;;;;4.07;1.00;;;;;;;;;;5022828;28;20490;-87
2023/10/29 00:36:54;;;;;;;3.63;0.98;;;;;;;;;;5022371;28;20441;-86
2023/10/29 00:39:19;;;;;;;2.25;1.00;;;;;;;;;;5024277;28;20036;-85
2023/10/29 00:41:45;;;;;;;1.52;0.80;;;;;;;;;;5023821;28;20025;-86
2023/10/29 00:44:10;;;;;;;4.07;1.48;;;;;;;;;;5018815;28;20022;-85
2023/10/29 00:46:39;;;;;;;3.05;0.80;;;;;;;;;;5026246;28;20055;-86
2023/10/29 00:49:05;;;;;;;2.15;0.88;;;;;;;;;;5021920;28;20029;-86
2023/10/29 00:51:30;;;;;;;2.70;0.70;;;;;;;;;;5021973;28;20044;-85
2023/10/29 00:53:55;;;;;;;2.83;0.90;;;;;;;;;;5024491;28;20033;-86
2023/10/29 00:56:21;;;;;;;2.90;0.80;;;;;;;;;;5038794;28;20064;-86
2023/10/29 00:58:51;;;;;;;4.20;0.88;;;;;;;;;;5020237;28;20029;-87
2023/10/29 01:01:16;;;;;;;1.48;0.80;;;;;;;;;;5035943;28;20029;-87
2023/10/29 01:03:42;;;;;;;2.63;1.08;;;;;;;;;;5020902;28;20074;-83
2023/10/29 01:06:08;;;;;;;2.67;0.93;;;;;;;;;;5024453;28;20041;-82
2023/10/29 01:08:34;;;;;;;3.17;1.25;;;;;;;;;;5033592;28;21844;-82
2023/10/29 01:10:59;;;;;;;3.00;1.10;;;;;;;;;;5030462;28;20033;-82
2023/10/29 01:13:24;;;;;;;3.08;0.90;;;;;;;;;;5034065;28;20033;-82
2023/10/29 01:15:50;;;;;;;3.10;1.00;;;;;;;;;;5025686;28;20040;-82
2023/10/29 01:18:15;;;;;;;1.63;0.90;;;;;;;;;;5025996;28;20095;-85
2023/10/29 01:20:42;;;;;;;2.70;0.80;;;;;;;;;;5025842;28;20029;-82
2023/10/29 01:23:08;;;;;;;1.85;0.95;;;;;;;;;;5022617;28;20070;-83
2023/10/29 01:25:33;;;;;;;3.92;1.23;;;;;;;;;;5025208;28;20029;-82
2023/10/29 01:27:59;;;;;;;4.13;0.90;;;;;;;;;;5028926;28;20026;-85
2023/10/29 01:30:25;;;;;;;2.95;1.02;;;;;;;;;;5026735;28;20030;-85
2023/10/29 01:32:50;;;;;;;3.83;0.95;;;;;;;;;;5022669;28;20496;-85
2023/10/29 01:35:16;;;;;;;2.60;0.88;;;;;;;;;;5038724;28;20072;-85
2023/10/29 01:37:41;;;;;;;2.80;0.82;;;;;;;;;;5024780;28;20028;-85
2023/10/29 01:40:07;;;;;;;2.95;1.00;;;;;;;;;;5029815;28;20040;-85
2023/10/29 01:42:33;;;;;;;2.83;1.00;;;;;;;;;;5028559;28;20041;-86
2023/10/29 01:44:58;;;;;;;2.33;1.00;;;;;;;;;;5025109;28;20468;-85
2023/10/29 01:47:23;;;;;;;3.05;0.93;;;;;;;;;;5029366;28;20044;-85
2023/10/29 01:49:49;;;;;;;2.95;0.88;;;;;;;;;;5049652;28;20116;-91
2023/10/29 01:52:14;;;;;;;2.20;0.80;;;;;;;;;;5037642;28;20021;-89
2023/10/29 01:54:39;;;;;;;2.72;0.98;;;;;;;;;;5033506;28;20037;-91
2023/10/29 01:57:05;;;;;;;2.08;1.00;;;;;;;;;;5034203;28;20029;-91
2023/10/29 01:59:30;;;;;;;1.35;0.70;;;;;;;;;;5031662;28;20433;-86
2023/10/29 02:01:56;;;;;;;2.00;0.80;;;;;;;;;;5037159;28;20120;-89
2023/10/29 02:04:26;;;;;;;1.98;0.90;;;;;;;;;;5026580;28;20028;-88
2023/10/29 02:06:54;;;;;;;3.83;0.82;;;;;;;;;;5033223;28;20026;-84
2023/10/29 02:09:20;;;;;;;1.45;0.60;;;;;;;;;;5032184;28;20048;-90
2023/10/29 02:11:45;;;;;;;1.88;0.70;;;;;;;;;;5033849;28;20022;-86
2023/10/29 02:14:10;;;;;;;2.72;0.90;;;;;;;;;;5035330;28;20081;-89
2023/10/29 02:16:36;;;;;;;1.08;0.68;;;;;;;;;;5038067;28;20048;-92
2023/10/29 02:19:03;;;;;;;2.63;0.70;;;;;;;;;;5028495;28;20120;-91
2023/10/29 02:21:28;;;;;;;1.30;0.80;;;;;;;;;;5036566;28;20041;-87
2023/10/29 02:23:54;;;;;;;2.28;0.73;;;;;;;;;;5037797;28;20048;-90
2023/10/29 02:26:21;;;;;;;1.55;0.65;;;;;;;;;;5038289;28;20500;-92
2023/10/29 02:28:46;;;;;;;1.83;0.80;;;;;;;;;;5032224;28;20441;-91
2023/10/29 02:31:21;;;;;;;2.95;0.98;;;;;;;;;;5030768;28;20025;-92
2023/10/29 02:33:47;;;;;;;2.65;1.00;;;;;;;;;;5030588;28;20071;-90
2023/10/29 02:36:13;;;;;;;2.42;0.93;;;;;;;;;;5027234;28;20091;-85
2023/10/29 02:38:40;;;;;;;2.67;0.90;;;;;;;;;;5024461;28;20482;-84
2023/10/29 02:41:05;;;;;;;2.45;1.17;;;;;;;;;;5026411;28;20481;-84
2023/10/29 02:43:31;;;;;;;2.67;0.70;;;;;;;;;;5028788;28;20047;-85
2023/10/29 02:45:56;;;;;;;1.50;0.75;;;;;;;;;;5025391;28;20056;-88
2023/10/29 02:48:22;;;;;;;3.40;0.82;;;;;;;;;;5026596;28;20033;-84
2023/10/29 02:50:47;;;;;;;1.77;0.77;;;;;;;;;;5025779;28;20029;-84
2023/10/29 02:53:13;;;;;;;2.30;0.80;;;;;;;;;;5027927;28;20521;-84
2023/10/29 02:55:39;;;;;;;3.67;0.80;;;;;;;;;;5024931;28;20036;-86
2023/10/29 02:58:05;;;;;;;2.97;1.13;;;;;;;;;;5026753;28;20029;-88
2023/10/29 03:00:31;;;;;;;2.42;0.90;;;;;;;;;;5023784;28;20037;-87
2023/10/29 03:02:56;;;;;;;2.88;0.82;;;;;;;;;;5025283;28;20030;-91
2023/10/29 03:05:22;;;;;;;3.28;0.70;;;;;;;;;;5033537;28;20021;-91
2023/10/29 03:07:48;;;;;;;2.42;0.68;;;;;;;;;;5027905;28;20025;-92
2023/10/29 03:10:13;;;;;;;1.17;0.65;;;;;;;;;;5027897;28;20030;-89
2023/10/29 03:12:38;;;;;;;2.88;0.80;;;;;;;;;;5034031;28;20025;-91
2023/10/29 03:15:04;;;;;;;2.38;0.60;;;;;;;;;;5032594;28;20018;-92
2023/10/29 03:17:30;;;;;;;1.85;0.80;;;;;;;;;;5038851;28;20037;-91
2023/10/29 03:19:55;;;;;;;2.00;0.70;;;;;;;;;;5032221;28;20337;-90
2023/10/29 03:22:20;;;;;;;3.55;0.85;;;;;;;;;;5036815;28;20173;-81
2023/10/29 03:24:46;;;;;;;2.95;0.90;;;;;;;;;;5028416;28;20052;-84
2023/10/29 03:27:11;;;;;;;2.97;0.70;;;;;;;;;;5039920;28;20021;-85
2023/10/29 03:29:36;;;;;;;1.90;0.70;;;;;;;;;;5027802;28;20029;-84
2023/10/29 03:32:03;;;;;;;2.60;0.77;;;;;;;;;;5021003;28;20108;-84
2023/10/29 03:34:30;;;;;;;2.72;0.80;;;;;;;;;;5039092;28;20473;-84
2023/10/29 03:36:55;;;;;;;3.65;0.75;;;;;;;;;;5022108;28;20500;-84
2023/10/29 03:39:21;;;;;;;2.63;0.50;;;;;;;;;;5021954;28;20026;-84
2023/10/29 03:41:46;;;;;;;1.33;0.60;;;;;;;;;;5027147;28;20112;-84
2023/10/29 03:44:12;;;;;;;2.15;0.68;;;;;;;;;;5021149;28;20025;-85
2023/10/29 03:46:37;;;;;;;2.13;0.70;;;;;;;;;;5022401;28;20032;-84
2023/10/29 03:49:03;;;;;;;1.77;0.60;;;;;;;;;;5030375;28;20056;-84
2023/10/29 03:51:28;;;;;;;2.47;0.65;;;;;;;;;;5028858;28;20075;-84
2023/10/29 03:53:57;;;;;;;2.22;0.80;;;;;;;;;;5023478;28;20033;-84
2023/10/29 03:56:22;;;;;;;2.70;0.82;;;;;;;;;;5035927;28;20024;-84
2023/10/29 03:58:48;;;;;;;1.30;0.57;;;;;;;;;;5024918;28;20580;-83
2023/10/29 04:01:14;;;;;;;4.10;0.63;;;;;;;;;;5027637;28;20022;-84
2023/10/29 04:03:40;;;;;;;2.15;0.50;;;;;;;;;;5028169;28;20025;-85
2023/10/29 04:06:11;;;;;;;1.45;0.60;;;;;;;;;;5020737;28;20044;-84
2023/10/29 04:08:37;;;;;;;2.33;0.60;;;;;;;;;;5028684;28;20026;-83
2023/10/29 04:11:03;;;;;;;2.17;0.60;;;;;;;;;;5025466;28;20960;-82
2023/10/29 04:13:28;;;;;;;1.48;0.50;;;;;;;;;;5027161;28;20032;-81
2023/10/29 04:15:53;;;;;;;1.33;0.50;;;;;;;;;;5029616;28;20111;-82
2023/10/29 04:18:19;;;;;;;2.33;0.60;;;;;;;;;;5025254;28;20067;-82
2023/10/29 04:20:45;;;;;;;1.92;0.52;;;;;;;;;;5029679;28;20029;-82
2023/10/29 04:23:10;;;;;;;1.50;0.40;;;;;;;;;;5027994;28;20021;-82
2023/10/29 04:25:36;;;;;;;1.40;0.40;;;;;;;;;;5030509;28;20029;-81
2023/10/29 04:28:01;;;;;;;2.17;0.63;;;;;;;;;;5028143;28;20029;-83
2023/10/29 04:30:26;;;;;;;1.75;0.40;;;;;;;;;;5024804;28;20083;-81
2023/10/29 04:32:52;;;;;;;3.00;0.55;;;;;;;;;;5027262;28;20022;-91
2023/10/29 04:35:18;;;;;;;1.67;0.60;;;;;;;;;;5029285;28;20087;-89
2023/10/29 04:37:43;;;;;;;3.20;0.52;;;;;;;;;;5028470;28;20037;-88
2023/10/29 04:40:09;;;;;;;2.58;0.63;;;;;;;;;;5025946;28;20520;-89
2023/10/29 04:42:34;;;;;;;1.70;0.70;;;;;;;;;;5024147;28;20033;-88
2023/10/29 04:45:00;;;;;;;4.00;1.10;;;;;;;;;;5025926;28;20037;-89
2023/10/29 04:47:25;;;;;;;2.35;0.50;;;;;;;;;;5024391;28;20040;-88
2023/10/29 04:49:50;;;;;;;3.53;0.60;;;;;;;;;;5026325;28;20036;-85
2023/10/29 04:52:16;;;;;;;2.05;0.43;;;;;;;;;;5019727;28;20041;-88
2023/10/29 04:54:42;;;;;;;3.45;0.40;;;;;;;;;;5024325;28;20030;-88
2023/10/29 04:57:08;;;;;;;2.25;0.50;;;;;;;;;;5024871;28;20474;-87
2023/10/29 04:59:36;;;;;;;1.95;0.70;;;;;;;;;;5030218;28;20033;-88
2023/10/29 05:02:05;;;;;;;1.92;0.43;;;;;;;;;;5028733;28;20036;-88
2023/10/29 05:04:30;;;;;;;1.52;0.47;;;;;;;;;;5026396;28;20116;-88
2023/10/29 05:06:56;;;;;;;1.77;0.40;;;;;;;;;;5026071;28;20116;-89
2023/10/29 05:09:21;;;;;;;0.88;0.30;;;;;;;;;;5026039;28;20017;-86
2023/10/29 05:11:47;;;;;;;1.30;0.32;;;;;;;;;;5028921;28;20021;-89
2023/10/29 05:14:13;;;;;;;2.67;0.50;;;;;;;;;;5028396;28;20072;-89
2023/10/29 05:16:38;;;;;;;2.30;0.70;;;;;;;;;;5033438;28;20036;-88
2023/10/29 05:19:04;;;;;;;2.25;0.50;;;;;;;;;;5028688;28;20113;-88
2023/10/29 05:21:29;;;;;;;3.72;0.60;;;;;;;;;;5029338;28;20127;-88
2023/10/29 05:23:55;;;;;;;3.03;0.75;;;;;;;;;;5033035;28;20037;-89
2023/10/29 05:26:20;;;;;;;3.58;0.85;;;;;;;;;;5021677;28;20055;-90
2023/10/29 05:28:46;;;;;;;3.03;0.60;;;;;;;;;;5028303;28;20115;-88
2023/10/29 05:31:11;;;;;;;2.35;0.50;;;;;;;;;;5028072;28;20104;-88
2023/10/29 05:33:37;;;;;;;3.53;0.63;;;;;;;;;;5027939;28;20034;-90
2023/10/29 05:36:03;;;;;;;2.28;0.60;;;;;;;;;;5024779;28;20041;-88
2023/10/29 05:38:29;;;;;;;2.60;0.50;;;;;;;;;;5027553;28;20037;-88
2023/10/29 05:40:54;;;;;;;1.55;0.50;;;;;;;;;;5028793;28;20478;-87
2023/10/29 05:43:20;;;;;;;2.38;0.50;;;;;;;;;;5025655;28;20021;-86
2023/10/29 05:45:45;;;;;;;3.80;0.50;;;;;;;;;;5027823;28;20029;-82
2023/10/29 05:48:11;;;;;;;1.98;0.40;;;;;;;;;;5023098;28;20026;-82
2023/10/29 05:50:38;;;;;;;2.95;0.50;;;;;;;;;;5021837;28;20477;-83
2023/10/29 05:53:04;;;;;;;2.72;0.50;;;;;;;;;;5023912;28;20104;-83
2023/10/29 05:55:29;;;;;;;1.35;0.32;;;;;;;;;;5020295;28;20120;-83
2023/10/29 05:57:55;;;;;;;1.85;0.43;;;;;;;;;;5021612;28;20028;-82
2023/10/29 06:00:21;;;;;;;2.97;0.50;;;;;;;;;;5023541;28;20138;-81
2023/10/29 06:02:47;;;;;;;1.77;0.40;;;;;;;;;;5026498;28;20040;-82
2023/10/29 06:05:12;;;;;;;5.35;0.80;;;;;;;;;;5020479;28;20030;-82
2023/10/29 06:07:42;;;;;;;0.90;0.40;;;;;;;;;;5027606;28;20540;-81
2023/10/29 06:10:09;;;;;;;3.08;0.70;;;;;;;;;;5023489;28;20393;-82
2023/10/29 06:12:35;;;;;;;2.38;0.40;;;;;;;;;;5026757;28;20051;-82
2023/10/29 06:15:01;;;;;;;2.92;0.60;;;;;;;;;;5023379;28;20021;-81
2023/10/29 06:17:26;;;;;;;2.75;0.47;;;;;;;;;;5021978;28;20392;-82
2023/10/29 06:19:52;;;;;;;3.45;0.45;;;;;;;;;;5024738;28;20029;-84
2023/10/29 06:22:17;;;;;;;2.40;0.43;;;;;;;;;;5030559;28;20493;-84
2023/10/29 06:24:43;;;;;;;3.47;0.40;;;;;;;;;;5021283;28;20064;-83
2023/10/29 06:27:08;;;;;;;1.88;0.40;;;;;;;;;;5041589;28;20033;-84
2023/10/29 06:29:36;;;;;;;4.43;0.50;;;;;;;;;;5021934;28;20041;-84
2023/10/29 06:32:02;;;;;;;2.70;0.50;;;;;;;;;;5026113;28;20108;-85
2023/10/29 06:34:27;;;;;;;1.88;0.50;;;;;;;;;;5026859;28;20108;-83
2023/10/29 06:36:53;;;;;;;3.78;0.60;;;;;;;;;;5030673;28;20108;-84
2023/10/29 06:39:19;;;;;;;4.40;1.00;;;;;;;;;;5037148;28;20033;-83
2023/10/29 06:41:44;;;;;;;4.70;0.68;;;;;;;;;;5030261;28;20079;-84
2023/10/29 06:44:09;;;;;;;2.95;0.50;;;;;;;;;;5027648;28;20053;-84
2023/10/29 06:46:35;;;;;;;4.07;0.75;;;;;;;;;;5028187;28;20378;-83
2023/10/29 06:49:00;;;;;;;2.75;0.60;;;;;;;;;;5028666;28;20029;-84
2023/10/29 06:51:26;;;;;;;3.42;0.60;;;;;;;;;;5022986;28;20079;-84
2023/10/29 06:53:51;;;;;;;4.00;0.80;;;;;;;;;;5029073;28;20032;-90
2023/10/29 06:56:17;;;;;;;4.22;0.80;;;;;;;;;;5025652;28;20025;-89
2023/10/29 06:58:42;;;;;;;5.45;0.70;;;;;;;;;;5027619;28;20082;-89
2023/10/29 07:01:09;;;;;;;4.65;0.95;;;;;;;;;;5028673;28;20028;-87
2023/10/29 07:03:35;;;;;;;1.98;0.50;;;;;;;;;;5022926;28;20037;-89
2023/10/29 07:06:11;;;;;;;3.53;0.60;;;;;;;;;;5026316;28;20033;-90
2023/10/29 07:08:37;;;;;;;4.30;0.90;;;;;;;;;;5022090;28;20049;-86
2023/10/29 07:11:04;;;;;;;4.32;0.77;;;;;;;;;;5017586;28;20033;-89
2023/10/29 07:13:31;;;;;;;7.65;1.00;;;;;;;;;;5022668;28;20033;-90
2023/10/29 07:15:58;;;;;;;4.18;0.88;;;;;;;;;;5023883;28;20029;-86
2023/10/29 07:18:23;;;;;;;6.68;1.00;;;;;;;;;;5023143;28;20038;-88
2023/10/29 07:20:52;;;;;;;7.75;0.98;;;;;;;;;;5024007;28;20053;-87
2023/10/29 07:23:19;;;;;;;5.05;0.80;;;;;;;;;;5024961;28;20037;-85
2023/10/29 07:25:45;;;;;;;4.40;0.60;;;;;;;;;;5025638;28;20036;-90
2023/10/29 07:28:10;;;;;;;5.82;1.00;;;;;;;;;;5026212;28;20022;-90
2023/10/29 07:30:36;;;;;;;7.05;1.08;;;;;;;;;;5025749;28;20037;-89
2023/10/29 07:33:01;;;;;;;5.18;1.15;;;;;;;;;;5018705;28;20029;-90
2023/10/29 07:35:26;;;;;;;4.50;0.77;;;;;;;;;;5021758;28;20114;-90
2023/10/29 07:37:52;;;;;;;4.13;0.75;;;;;;;;;;5023314;28;20497;-91
2023/10/29 07:40:17;;;;;;;6.78;0.82;;;;;;;;;;5025944;28;20037;-90
2023/10/29 07:42:42;;;;;;;9.70;1.83;;;;;;;;;;5025347;28;20037;-90
2023/10/29 07:45:08;;;;;;;4.22;0.73;;;;;;;;;;5021406;28;20073;-86
2023/10/29 07:47:33;;;;;;;8.13;1.08;;;;;;;;;;5019803;28;20117;-89
2023/10/29 07:50:03;;;;;;;6.47;1.08;;;;;;;;;;5026907;28;20142;-90
2023/10/29 07:52:29;;;;;;;5.13;0.95;;;;;;;;;;5037822;28;20520;-91
2023/10/29 07:54:54;;;;;;;8.45;0.90;;;;;;;;;;5025695;28;20025;-87
2023/10/29 07:57:21;;;;;;;9.02;1.63;;;;;;;;;;5022908;28;20033;-83
2023/10/29 07:59:46;;;;;;;6.95;0.90;;;;;;;;;;5021813;28;20025;-85
2023/10/29 08:02:11;;;;;;;3.25;0.85;;;;;;;;;;5023474;28;20026;-83
2023/10/29 08:04:37;;;;;;;5.72;1.10;;;;;;;;;;5017903;28;20145;-88
2023/10/29 08:07:04;;;;;;;8.68;1.15;;;;;;;;;;5027110;28;20052;-87
2023/10/29 08:09:30;;;;;;;7.72;0.88;;;;;;;;;;5023187;28;20467;-87
2023/10/29 08:11:58;;;;;;;4.07;0.90;;;;;;;;;;5026578;28;20029;-87
2023/10/29 08:14:24;;;;;;;8.65;1.40;;;;;;;;;;5020041;28;20034;-91
2023/10/29 08:16:49;;;;;;;6.47;0.80;;;;;;;;;;5024152;28;20129;-86
2023/10/29 08:19:15;;;;;;;5.72;0.90;;;;;;;;;;5024485;28;20022;-89
2023/10/29 08:21:42;;;;;;;9.32;1.10;;;;;;;;;;5026806;28;20033;-91
2023/10/29 08:24:08;;;;;;;6.97;0.95;;;;;;;;;;5021892;28;20021;-84
2023/10/29 08:26:33;;;;;;;4.97;0.95;;;;;;;;;;5021514;28;20026;-84
2023/10/29 08:29:03;;;;;;;8.38;3.00;;;;;;;;;;5018024;28;20029;-84
2023/10/29 08:31:31;;;;;;;6.10;1.23;;;;;;;;;;5023182;28;20040;-84
2023/10/29 08:33:57;;;;;;;4.93;1.00;;;;;;;;;;5023608;28;20021;-85
2023/10/29 08:36:24;;;;;;;7.57;1.13;;;;;;;;;;5031993;28;20030;-86
2023/10/29 08:38:51;;;;;;;7.13;1.00;;;;;;;;;;5028548;28;20021;-86
2023/10/29 08:41:17;;;;;;;5.85;0.90;;;;;;;;;;5032733;28;20103;-88
2023/10/29 08:43:43;;;;;;;6.30;1.10;;;;;;;;;;5028384;28;20080;-88
2023/10/29 08:46:08;;;;;;;7.50;1.13;;;;;;;;;;5029683;28;20029;-88
2023/10/29 08:48:34;;;;;;;7.30;1.20;;;;;;;;;;5029713;28;20021;-85
2023/10/29 08:50:59;;;;;;;8.95;1.20;;;;;;;;;;5053329;28;20029;-84
2023/10/29 08:53:24;;;;;;;7.00;1.02;;;;;;;;;;5028467;28;20029;-82
2023/10/29 08:55:51;;;;;;;6.63;1.13;;;;;;;;;;5027978;28;20680;-82
2023/10/29 08:58:17;;;;;;;5.88;0.80;;;;;;;;;;5031365;28;20032;-82
2023/10/29 09:00:44;;;;;;;5.25;1.10;;;;;;;;;;5029100;28;20410;-82
2023/10/29 09:03:10;;;;;;;6.32;0.90;;;;;;;;;;5026196;28;20071;-82
2023/10/29 09:05:36;;;;;;;4.72;0.90;;;;;;;;;;5030033;28;20473;-82
2023/10/29 09:08:01;;;;;;;8.70;1.75;;;;;;;;;;5028299;28;20037;-83
2023/10/29 09:10:30;;;;;;;3.67;0.95;;;;;;;;;;5029414;28;20021;-91
2023/10/29 09:12:56;;;;;;;5.65;1.05;;;;;;;;;;5034377;28;20018;-90
2023/10/29 09:15:30;;;;;;;6.30;0.90;;;;;;;;;;5042674;28;20017;-91
2023/10/29 09:17:56;;;;;;;6.13;1.02;;;;;;;;;;5055731;28;20022;-92
2023/10/29 09:20:21;;;;;;;5.85;0.80;;;;;;;;;;5028727;28;20431;-89
2023/10/29 09:22:47;;;;;;;6.68;1.20;;;;;;;;;;5040988;28;20036;-90
2023/10/29 09:25:16;;;;;;;8.82;1.05;;;;;;;;;;5057649;28;20041;-90
2023/10/29 09:27:42;;;;;;;8.18;0.93;;;;;;;;;;5042378;28;20036;-90
2023/10/29 09:30:10;;;;;;;5.47;0.95;;;;;;;;;;5047484;28;20041;-88
2023/10/29 09:32:37;;;;;;;8.27;1.40;;;;;;;;;;5044547;28;20025;-90
2023/10/29 09:35:05;;;;;;;5.75;0.82;;;;;;;;;;5035489;28;20033;-90
2023/10/29 09:37:34;;;;;;;6.78;0.80;;;;;;;;;;5042830;28;20034;-91
2023/10/29 09:40:01;;;;;;;7.57;1.17;;;;;;;;;;5043523;28;20078;-91
2023/10/29 09:42:32;;;;;;;7.85;1.25;;;;;;;;;;5043614;28;20080;-89
2023/10/29 09:44:58;;;;;;;6.28;0.77;;;;;;;;;;5054942;28;20057;-92
2023/10/29 09:47:26;;;;;;;5.30;1.35;;;;;;;;;;5038130;28;20079;-85
2023/10/29 09:49:54;;;;;;;5.13;0.90;;;;;;;;;;5059289;28;20096;-86
2023/10/29 09:52:23;;;;;;;7.28;0.80;;;;;;;;;;5036239;28;20506;-89
2023/10/29 09:54:51;;;;;;;4.20;0.95;;;;;;;;;;5032393;28;20056;-91
2023/10/29 09:57:20;;;;;;;6.07;0.80;;;;;;;;;;5030929;28;20036;-89
2023/10/29 09:59:46;;;;;;;7.53;0.82;;;;;;;;;;5032211;28;20022;-93
2023/10/29 10:02:14;;;;;;;5.05;1.00;;;;;;;;;;5017657;28;20065;-92
2023/10/29 10:04:39;;;;;;;5.63;1.10;;;;;;;;;;5034412;28;20056;-91
2023/10/29 10:07:06;;;;;;;4.30;1.00;;;;;;;;;;5039139;28;20029;-93
2023/10/29 10:09:54;;;;;;;5.97;0.95;;;;;;;;;;5032326;28;20040;-91
2023/10/29 10:12:20;;;;;;;7.38;0.95;;;;;;;;;;5024167;28;20060;-93
2023/10/29 10:14:47;;;;;;;7.00;0.98;;;;;;;;;;5033307;28;20022;-93
2023/10/29 10:17:12;;;;;;;4.80;0.82;;;;;;;;;;5029262;28;20469;-92
2023/10/29 10:19:40;;;;;;;4.65;0.90;;;;;;;;;;5032551;28;20029;-91
2023/10/29 10:22:07;;;;;;;6.50;1.05;;;;;;;;;;5027716;28;20512;-87
2023/10/29 10:24:43;;;;;;;5.18;0.82;;;;;;;;;;5027145;28;20125;-89
2023/10/29 10:27:09;;;;;;;8.85;1.25;;;;;;;;;;5030903;28;20029;-93
2023/10/29 10:29:35;;;;;;;4.53;0.80;;;;;;;;;;5029626;28;20036;-90
2023/10/29 10:32:04;;;;;;;6.03;1.13;;;;;;;;;;5048026;28;20167;-92
2023/10/29 10:34:34;;;;;;;3.88;0.90;;;;;;;;;;5035978;28;20384;-93
2023/10/29 10:37:03;;;;;;;9.07;1.02;;;;;;;;;;5029117;28;20033;-93
2023/10/29 10:39:33;;;;;;;9.13;1.10;;;;;;;;;;5026643;28;20037;-93
2023/10/29 10:42:02;;;;;;;7.97;1.38;;;;;;;;;;5025551;28;20037;-93
2023/10/29 10:44:31;;;;;;;10.43;1.75;;;;;;;;;;5028897;28;20707;-91
2023/10/29 10:46:59;;;;;;;6.88;0.93;;;;;;;;;;5035494;28;20034;-94
2023/10/29 10:49:25;;;;;;;5.38;1.00;;;;;;;;;;5027982;28;20029;-93
2023/10/29 10:51:55;;;;;;;7.35;1.38;;;;;;;;;;5024493;28;20036;-91
2023/10/29 10:54:22;;;;;;;7.70;1.35;;;;;;;;;;5025393;28;20406;-88
2023/10/29 10:56:50;;;;;;;6.75;1.10;;;;;;;;;;5029558;28;20053;-88
2023/10/29 10:59:15;;;;;;;5.95;0.70;;;;;;;;;;5025534;28;20426;-87
2023/10/29 11:01:41;;;;;;;6.30;1.02;;;;;;;;;;5038150;28;20119;-87
2023/10/29 11:04:08;;;;;;;6.75;1.20;;;;;;;;;;5026275;28;20397;-87
2023/10/29 11:06:40;;;;;;;5.75;0.98;;;;;;;;;;5023249;28;20118;-87
2023/10/29 11:09:14;;;;;;;7.20;0.90;;;;;;;;;;5038468;28;20025;-86
2023/10/29 11:11:44;;;;;;;6.53;1.25;;;;;;;;;;5033689;28;20082;-87
2023/10/29 11:14:15;;;;;;;7.45;1.20;;;;;;;;;;5025231;28;20025;-87
2023/10/29 11:16:51;;;;;;;4.75;1.20;;;;;;;;;;5027806;28;20028;-87
2023/10/29 11:19:35;;;;;;;11.63;1.65;;;;;;;;;;5029967;28;20025;-88
2023/10/29 11:22:20;;;;;;;6.43;1.10;;;;;;;;;;5031242;28;20045;-88
2023/10/29 11:25:04;;;;;;;5.97;1.00;;;;;;;;;;5034441;28;20539;-88
2023/10/29 11:27:36;;;;;;;10.95;1.48;;;;;;;;;;5033105;28;20108;-87
2023/10/29 11:30:14;;;;;;;5.80;1.33;;;;;;;;;;5032270;28;20057;-88
2023/10/29 11:32:41;;;;;;;4.50;1.00;;;;;;;;;;5030342;28;20033;-87
2023/10/29 11:35:21;;;;;;;5.50;1.20;;;;;;;;;;5026668;28;20061;-89
2023/10/29 11:37:48;;;;;;;5.22;1.20;;;;;;;;;;5021890;28;20025;-87
2023/10/29 11:40:23;;;;;;;7.93;1.10;;;;;;;;;;5025205;28;20025;-87
2023/10/29 11:42:51;;;;;;;8.50;1.52;;;;;;;;;;5029567;28;20025;-86
2023/10/29 11:45:25;;;;;;;6.72;1.10;;;;;;;;;;5049389;28;20028;-89
2023/10/29 11:48:10;;;;;;;5.38;1.40;;;;;;;;;;5038094;28;20504;-87
2023/10/29 11:50:40;;;;;;;5.55;1.30;;;;;;;;;;5033977;28;20087;-86
2023/10/29 11:53:06;;;;;;;5.80;1.40;;;;;;;;;;5022282;28;20469;-87
2023/10/29 11:55:45;;;;;;;5.82;1.73;;;;;;;;;;5021244;28;20128;-87
2023/10/29 11:58:11;;;;;;;5.47;1.10;;;;;;;;;;5008858;28;20033;-86
2023/10/29 12:00:38;;;;;;;7.07;0.70;;;;;;;;;;5015212;28;20045;-86
2023/10/29 12:03:06;;;;;;;9.23;1.05;;;;;;;;;;5019980;28;20021;-87
2023/10/29 12:05:32;;;;;;;7.72;1.10;;;;;;;;;;5037904;28;20508;-87
2023/10/29 12:08:01;;;;;;;5.40;0.98;;;;;;;;;;5018325;28;20053;-87
2023/10/29 12:10:27;;;;;;;8.02;1.08;;;;;;;;;;5023778;28;20029;-86
2023/10/29 12:12:55;;;;;;;7.80;1.15;;;;;;;;;;5016847;28;20033;-86
2023/10/29 12:15:20;;;;;;;6.25;1.20;;;;;;;;;;5020482;28;20372;-85
2023/10/29 12:17:46;;;;;;;4.55;0.88;;;;;;;;;;5020277;28;20029;-86
2023/10/29 12:20:26;;;;;;;8.93;1.27;;;;;;;;;;5017458;28;20025;-87
2023/10/29 12:22:54;;;;;;;7.80;1.13;;;;;;;;;;5018530;28;20427;-86
2023/10/29 12:25:21;;;;;;;6.97;1.02;;;;;;;;;;5022366;28;20167;-87
2023/10/29 12:27:47;;;;;;;6.03;0.85;;;;;;;;;;5021215;28;20036;-87
2023/10/29 12:30:42;;;;;;;7.95;1.10;;;;;;;;;;5019563;28;20084;-87
2023/10/29 12:33:19;;;;;;;10.27;1.80;;;;;;;;;;5041789;28;20072;-87
2023/10/29 12:35:45;;;;;;;10.07;1.60;;;;;;;;;;5023927;28;20132;-86
2023/10/29 12:38:11;;;;;;;7.30;1.38;;;;;;;;;;5018214;28;20092;-86
2023/10/29 12:40:36;;;;;;;6.75;1.20;;;;;;;;;;5014344;28;20033;-87
2023/10/29 12:43:02;;;;;;;8.05;1.13;;;;;;;;;;5016596;28;20556;-86
2023/10/29 12:45:32;;;;;;;5.95;1.10;;;;;;;;;;5022187;28;20033;-86
2023/10/29 12:48:11;;;;;;;6.57;1.02;;;;;;;;;;5036518;28;20030;-87
2023/10/29 12:51:03;;;;;;;6.72;1.13;;;;;;;;;;5023429;28;20036;-87
2023/10/29 12:53:32;;;;;;;6.97;1.27;;;;;;;;;;5017985;28;20041;-87
2023/10/29 12:55:59;;;;;;;8.20;1.25;;;;;;;;;;5021903;28;20033;-86
2023/10/29 12:58:26;;;;;;;4.50;1.42;;;;;;;;;;5019715;28;20033;-86
2023/10/29 13:00:51;;;;;;;7.63;1.10;;;;;;;;;;5026758;28;20033;-87
2023/10/29 13:03:17;;;;;;;6.78;1.23;;;;;;;;;;5022456;28;20366;-84
2023/10/29 13:05:43;;;;;;;6.90;1.10;;;;;;;;;;5011224;28;20092;-83
2023/10/29 13:08:11;;;;;;;7.28;1.10;;;;;;;;;;5033275;28;20124;-84
2023/10/29 13:10:36;;;;;;;5.03;1.00;;;;;;;;;;5017691;28;20083;-84
2023/10/29 13:13:02;;;;;;;9.40;1.73;;;;;;;;;;5021607;28;20025;-85
2023/10/29 13:15:28;;;;;;;8.18;1.38;;;;;;;;;;5016560;28;20087;-84
2023/10/29 13:17:54;;;;;;;5.47;1.15;;;;;;;;;;5018712;28;20056;-84
2023/10/29 13:20:20;;;;;;;6.88;1.15;;;;;;;;;;5031836;28;20035;-83
2023/10/29 13:22:46;;;;;;;7.57;1.27;;;;;;;;;;5037725;28;20037;-83
2023/10/29 13:25:12;;;;;;;5.88;1.13;;;;;;;;;;5018797;28;20705;-83
2023/10/29 13:27:37;;;;;;;8.55;1.33;;;;;;;;;;5020784;28;20040;-84
2023/10/29 13:30:04;;;;;;;7.47;1.10;;;;;;;;;;5017152;28;20029;-83
2023/10/29 13:32:30;;;;;;;8.27;1.20;;;;;;;;;;5016647;28;20030;-83
2023/10/29 13:34:56;;;;;;;4.38;0.90;;;;;;;;;;5021196;28;20021;-83
2023/10/29 13:37:22;;;;;;;4.53;1.00;;;;;;;;;;5027122;28;20045;-84
2023/10/29 13:39:47;;;;;;;6.60;1.10;;;;;;;;;;5017435;28;20588;-83
2023/10/29 13:42:13;;;;;;;6.57;1.20;;;;;;;;;;5017759;28;20041;-86
2023/10/29 13:44:39;;;;;;;4.93;1.13;;;;;;;;;;5018009;28;20061;-83
2023/10/29 13:47:06;;;;;;;8.35;1.60;;;;;;;;;;5027074;28;20067;-83
2023/10/29 13:49:32;;;;;;;5.22;1.08;;;;;;;;;;5021828;28;20041;-84
2023/10/29 13:51:57;;;;;;;7.70;1.00;;;;;;;;;;5022946;28;20258;-83
2023/10/29 13:54:23;;;;;;;6.68;1.10;;;;;;;;;;5015819;28;20436;-83
2023/10/29 13:56:48;;;;;;;7.18;1.40;;;;;;;;;;5029083;28;20037;-83
2023/10/29 13:59:14;;;;;;;6.13;1.00;;;;;;;;;;5008059;28;20050;-84
2023/10/29 14:01:39;;;;;;;5.78;1.10;;;;;;;;;;5023169;28;20030;-84
2023/10/29 14:04:05;;;;;;;5.65;0.90;;;;;;;;;;5013347;28;20027;-84
2023/10/29 14:06:31;;;;;;;4.97;0.77;;;;;;;;;;5013478;28;20031;-84
2023/10/29 14:08:57;;;;;;;4.78;1.27;;;;;;;;;;5014611;28;20107;-82
2023/10/29 14:11:26;;;;;;;5.90;0.93;;;;;;;;;;5019088;28;20029;-83
2023/10/29 14:13:55;;;;;;;6.88;2.00;;;;;;;;;;5020305;28;20602;-82
2023/10/29 14:16:42;;;;;;;5.63;1.00;;;;;;;;;;5018413;28;20031;-82
2023/10/29 14:19:08;;;;;;;4.65;1.15;;;;;;;;;;5019294;28;20038;-82
2023/10/29 14:21:34;;;;;;;7.00;0.85;;;;;;;;;;5022603;28;20500;-83
2023/10/29 14:24:03;;;;;;;6.25;1.20;;;;;;;;;;5010754;28;20022;-82
2023/10/29 14:26:29;;;;;;;4.32;1.08;;;;;;;;;;5015204;28;20047;-86
2023/10/29 14:28:54;;;;;;;3.83;1.00;;;;;;;;;;5017684;28;20026;-83
2023/10/29 14:31:20;;;;;;;6.68;1.10;;;;;;;;;;5014972;28;20033;-82
2023/10/29 14:33:45;;;;;;;5.43;1.30;;;;;;;;;;5015579;28;20033;-82
2023/10/29 14:36:10;;;;;;;6.57;1.42;;;;;;;;;;5028876;28;20092;-83
2023/10/29 14:38:36;;;;;;;3.30;1.00;;;;;;;;;;5017043;28;20029;-85
2023/10/29 14:41:02;;;;;;;4.72;1.45;;;;;;;;;;5017093;28;21269;-84